Becker, Minnesota
Current Conditions -  °F | °C
As of 4:55 PM on Monday 24 Nov 2014 (Local Time) from KMGG Reporting Station
Overcast Overcast  
Wind Chill:   Ceiling: 2500
Heat Index: 17°   Visibility: 10mi
Dew Point: 11°   Wind: 13mph
Humidity: 77%   Direction: 300°WNW
Pressure: 29.72"   Gusts: 22mph
Location:  45.39°N, 93.88°W
Report Text: KMGG 242255Z AUTO 30011G19KT 10SM BKN025 OVC095 M08/M12 A2972 RMK AO2 T10841117
Loading
Personal Weather Stations






























Interactive Weather Map New forecast layout! Learn more

10-Day Weather Forecast

Advertisements
Track Severe Weather on mobile